Time;durP1;ratioP1;P1;durP2;ratioP2;P2;SDS_P1;SDS_P2;PMS_P1;PMS_P2;Temp;Humidity;BMP_temperature;BMP_pressure;BME280_temperature;BME280_humidity;BME280_pressure;Samples;Min_cycle;Max_cycle;Signal;HPM_P1;HPM_P2
2022/05/27 00:02:22;;;;;;;9.88;3.60;;;12.20;99.90;;;;;;5029876;28;20029;-71
2022/05/27 00:04:48;;;;;;;7.75;3.10;;;12.40;99.90;;;;;;5028577;28;20034;-72
2022/05/27 00:07:14;;;;;;;6.20;3.20;;;12.30;99.90;;;;;;5029358;28;20790;-73
2022/05/27 00:09:39;;;;;;;5.25;3.00;;;12.30;99.90;;;;;;5027867;28;20065;-73
2022/05/27 00:12:05;;;;;;;5.53;3.53;;;12.20;99.90;;;;;;5029965;28;20033;-72
2022/05/27 00:14:31;;;;;;;9.55;3.60;;;12.20;99.90;;;;;;5029198;28;20068;-71
2022/05/27 00:16:57;;;;;;;7.95;3.28;;;12.20;99.90;;;;;;5029336;28;20051;-72
2022/05/27 00:19:22;;;;;;;5.80;3.58;;;12.30;99.90;;;;;;5028087;28;20033;-70
2022/05/27 00:21:48;;;;;;;7.38;3.67;;;12.40;99.90;;;;;;5027804;28;20439;-72
2022/05/27 00:24:13;;;;;;;6.53;3.28;;;12.50;99.90;;;;;;5028112;28;20467;-73
2022/05/27 00:26:39;;;;;;;7.57;3.17;;;12.60;99.90;;;;;;5028471;28;20467;-72
2022/05/27 00:29:05;;;;;;;11.20;3.08;;;12.70;99.90;;;;;;5028242;28;20114;-72
2022/05/27 00:31:32;;;;;;;10.55;3.22;;;12.80;99.90;;;;;;5009351;28;20038;-72
2022/05/27 00:33:58;;;;;;;5.20;3.17;;;12.80;99.90;;;;;;5028856;28;20092;-72
2022/05/27 00:36:23;;;;;;;8.27;3.22;;;12.80;99.90;;;;;;5026013;28;20421;-71
2022/05/27 00:38:50;;;;;;;5.43;3.10;;;12.80;99.90;;;;;;5026288;28;20042;-71
2022/05/27 00:41:16;;;;;;;7.38;3.50;;;12.80;99.90;;;;;;5029901;28;20049;-72
2022/05/27 00:43:43;;;;;;;6.20;3.50;;;12.80;99.90;;;;;;5026889;28;20025;-72
2022/05/27 00:46:17;;;;;;;6.97;3.22;;;12.80;99.90;;;;;;5029234;28;20036;-70
2022/05/27 00:48:44;;;;;;;9.40;3.42;;;12.80;99.90;;;;;;5027931;28;20476;-72
2022/05/27 00:51:30;;;;;;;7.25;3.42;;;12.80;99.90;;;;;;5027648;28;20076;-73
2022/05/27 00:54:10;;;;;;;6.78;3.50;;;12.90;99.90;;;;;;5020138;28;20038;-72
2022/05/27 00:56:39;;;;;;;6.97;3.35;;;12.80;99.90;;;;;;5027882;28;20037;-72
2022/05/27 00:59:17;;;;;;;6.90;3.53;;;12.80;99.90;;;;;;5021404;28;20049;-72
2022/05/27 01:01:43;;;;;;;8.75;3.60;;;12.80;99.90;;;;;;5027851;28;20132;-72
2022/05/27 01:04:10;;;;;;;7.32;3.50;;;12.70;99.90;;;;;;5027658;28;21890;-72
2022/05/27 01:06:36;;;;;;;8.95;3.60;;;12.70;99.90;;;;;;5025916;28;20037;-72
2022/05/27 01:09:03;;;;;;;7.00;2.95;;;12.70;99.90;;;;;;5027607;28;20401;-72
2022/05/27 01:11:31;;;;;;;6.57;3.50;;;12.70;99.90;;;;;;5028015;28;20025;-71
2022/05/27 01:14:02;;;;;;;5.07;3.25;;;12.70;99.90;;;;;;5026835;28;20025;-73
2022/05/27 01:16:51;;;;;;;8.10;3.60;;;12.60;99.90;;;;;;5026341;28;20023;-71
2022/05/27 01:22:46;;;;;;;5.47;3.25;;;12.50;99.90;;;;;;5028407;28;20041;-72
2022/05/27 01:25:53;;;;;;;8.27;3.58;;;12.40;99.90;;;;;;5026439;28;20030;-72
2022/05/27 01:28:56;;;;;;;6.97;3.50;;;12.40;99.90;;;;;;5020153;28;20099;-72
2022/05/27 01:31:39;;;;;;;8.43;3.47;;;12.40;99.90;;;;;;5027720;28;20069;-72
2022/05/27 01:34:28;;;;;;;13.27;3.72;;;12.50;99.90;;;;;;5027463;28;20061;-70
2022/05/27 01:37:22;;;;;;;4.68;3.15;;;12.50;99.90;;;;;;5026532;28;20604;-71
2022/05/27 01:40:09;;;;;;;7.07;3.00;;;12.50;99.90;;;;;;5026314;28;20049;-71
2022/05/27 01:42:45;;;;;;;8.80;3.78;;;12.50;99.90;;;;;;5026212;28;20056;-72
2022/05/27 01:45:30;;;;;;;5.32;2.90;;;12.50;99.90;;;;;;5029150;28;20026;-73
2022/05/27 01:48:02;;;;;;;5.70;3.60;;;12.50;99.90;;;;;;5023399;28;20033;-71
2022/05/27 01:50:36;;;;;;;8.23;3.50;;;12.40;99.90;;;;;;5026616;28;20026;-71
2022/05/27 01:53:06;;;;;;;4.72;3.10;;;12.40;99.90;;;;;;5027547;28;20053;-72
2022/05/27 01:55:53;;;;;;;6.95;3.72;;;12.40;99.90;;;;;;5027874;28;20113;-72
2022/05/27 01:58:28;;;;;;;7.65;3.55;;;12.40;99.90;;;;;;5028372;28;20041;-71
2022/05/27 02:00:54;;;;;;;4.28;3.22;;;12.40;99.90;;;;;;5026974;28;20033;-71
2022/05/27 02:03:41;;;;;;;5.40;3.95;;;12.40;99.90;;;;;;5022180;28;20037;-71
2022/05/27 02:06:15;;;;;;;6.30;3.60;;;12.30;99.90;;;;;;5021749;28;20033;-73
2022/05/27 02:09:22;;;;;;;6.50;3.45;;;12.30;99.90;;;;;;5026295;28;20099;-73
2022/05/27 02:11:53;;;;;;;6.70;3.45;;;12.20;99.90;;;;;;5025744;28;20033;-73
2022/05/27 02:14:27;;;;;;;6.07;3.50;;;12.20;99.90;;;;;;5027548;28;20072;-70
2022/05/27 02:17:00;;;;;;;5.22;3.53;;;12.20;99.90;;;;;;5026495;28;20040;-72
2022/05/27 02:19:47;;;;;;;11.27;3.58;;;12.00;99.90;;;;;;5031035;28;20032;-72
2022/05/27 02:22:17;;;;;;;7.15;3.15;;;11.90;99.90;;;;;;5029568;28;20096;-72
2022/05/27 02:24:50;;;;;;;7.07;3.38;;;11.90;99.90;;;;;;5031660;28;20034;-71
2022/05/27 02:27:20;;;;;;;5.68;3.40;;;11.80;99.90;;;;;;5031062;28;20037;-73
2022/05/27 02:29:50;;;;;;;6.90;3.85;;;11.80;99.90;;;;;;5030962;28;20057;-72
2022/05/27 02:32:22;;;;;;;6.65;3.22;;;11.70;99.90;;;;;;5029672;28;20065;-72
2022/05/27 02:35:11;;;;;;;6.15;3.47;;;11.80;99.90;;;;;;5030691;28;20073;-72
2022/05/27 02:38:03;;;;;;;7.28;3.38;;;11.90;99.90;;;;;;5029949;28;20041;-71
2022/05/27 02:40:39;;;;;;;5.53;3.50;;;11.90;99.90;;;;;;5025257;28;20049;-70
2022/05/27 02:43:33;;;;;;;6.65;3.58;;;12.00;99.90;;;;;;5025672;28;20029;-72
2022/05/27 02:46:22;;;;;;;9.77;3.67;;;12.00;99.90;;;;;;5031106;28;20540;-72
2022/05/27 02:49:06;;;;;;;5.88;3.53;;;12.00;99.90;;;;;;5029089;28;20041;-72
2022/05/27 02:51:54;;;;;;;5.32;3.47;;;12.00;99.90;;;;;;5030372;28;20470;-70
2022/05/27 02:54:25;;;;;;;5.53;3.88;;;12.00;99.90;;;;;;5015879;28;20091;-72
2022/05/27 02:57:04;;;;;;;5.88;3.38;;;12.00;99.90;;;;;;5030340;28;20029;-72
2022/05/27 02:59:31;;;;;;;7.90;3.75;;;12.00;99.90;;;;;;5029862;28;20036;-71
2022/05/27 03:02:12;;;;;;;5.47;3.42;;;11.90;99.90;;;;;;5029315;28;20061;-72
2022/05/27 03:04:44;;;;;;;5.32;3.63;;;11.90;99.90;;;;;;5026647;28;20033;-73
2022/05/27 03:07:28;;;;;;;6.05;3.55;;;11.90;99.90;;;;;;5030972;28;20048;-70
2022/05/27 03:10:12;;;;;;;7.15;3.47;;;11.80;99.90;;;;;;5028317;28;20264;-72
2022/05/27 03:12:52;;;;;;;9.23;3.85;;;11.80;99.90;;;;;;5028764;28;20033;-72
2022/05/27 03:15:53;;;;;;;6.60;3.28;;;11.70;99.90;;;;;;5031890;28;20109;-72
2022/05/27 03:18:47;;;;;;;;;;;11.60;99.90;;;;;;4962479;28;20573;-71
2022/05/27 03:21:35;;;;;;;5.80;3.20;;;11.60;99.90;;;;;;5030459;28;20015;-72
2022/05/27 03:24:24;;;;;;;6.25;3.22;;;11.60;99.90;;;;;;5028960;28;20467;-72
2022/05/27 03:27:20;;;;;;;4.70;2.85;;;11.70;99.90;;;;;;5029453;28;20041;-72
2022/05/27 03:29:50;;;;;;;6.82;3.53;;;11.60;99.90;;;;;;5029166;28;20375;-72
2022/05/27 03:32:45;;;;;;;5.60;3.70;;;11.70;99.90;;;;;;5030195;28;20026;-72
2022/05/27 03:35:20;;;;;;;7.90;3.67;;;11.70;99.90;;;;;;5026998;28;20522;-72
2022/05/27 03:38:00;;;;;;;5.20;3.55;;;11.80;99.90;;;;;;5028566;28;20036;-72
2022/05/27 03:40:32;;;;;;;5.78;3.33;;;11.90;99.90;;;;;;5028915;28;20049;-71
2022/05/27 03:42:58;;;;;;;5.72;3.20;;;11.90;99.90;;;;;;5027841;28;20041;-73
2022/05/27 03:45:24;;;;;;;6.28;3.30;;;12.00;99.90;;;;;;5028108;28;20034;-71
2022/05/27 03:47:51;;;;;;;7.75;3.35;;;12.20;99.90;;;;;;5028845;28;20040;-72
2022/05/27 03:50:21;;;;;;;6.57;3.35;;;12.30;99.90;;;;;;5030173;28;20103;-71
2022/05/27 03:52:49;;;;;;;7.07;3.30;;;12.40;99.90;;;;;;5026820;28;20029;-72
2022/05/27 03:55:17;;;;;;;5.22;3.20;;;12.20;99.90;;;;;;5010143;28;20042;-72
2022/05/27 03:57:43;;;;;;;6.18;3.20;;;12.00;99.90;;;;;;5026682;28;20111;-71
2022/05/27 04:00:10;;;;;;;6.68;3.40;;;12.10;99.90;;;;;;5029965;28;20057;-72
2022/05/27 04:02:36;;;;;;;5.70;3.33;;;12.00;99.90;;;;;;5028313;28;20060;-70
2022/05/27 04:05:03;;;;;;;5.97;3.70;;;12.00;99.90;;;;;;5029241;28;20056;-72
2022/05/27 04:07:29;;;;;;;6.80;4.20;;;12.10;99.90;;;;;;5027518;28;20073;-72
2022/05/27 04:09:55;;;;;;;6.30;3.40;;;12.20;99.90;;;;;;5027542;28;20057;-71
2022/05/27 04:12:22;;;;;;;4.65;3.22;;;12.30;99.90;;;;;;5027936;28;20435;-71
2022/05/27 04:14:52;;;;;;;6.40;3.15;;;12.30;99.90;;;;;;5027667;28;20389;-71
2022/05/27 04:17:32;;;;;;;6.10;3.10;;;12.40;99.90;;;;;;5022479;28;20159;-72
2022/05/27 04:20:09;;;;;;;7.30;3.20;;;12.50;99.90;;;;;;5024764;28;20737;-72
2022/05/27 04:22:36;;;;;;;8.05;3.60;;;12.50;99.90;;;;;;5027734;28;20075;-70
2022/05/27 04:25:02;;;;;;;4.93;3.05;;;12.50;99.90;;;;;;5028380;28;20550;-72
2022/05/27 04:27:28;;;;;;;5.50;2.92;;;12.60;99.90;;;;;;5018766;28;20099;-72
2022/05/27 04:29:55;;;;;;;5.18;3.00;;;12.60;99.90;;;;;;5027677;28;20048;-71
2022/05/27 04:32:21;;;;;;;4.25;3.22;;;12.60;99.90;;;;;;5028018;28;20025;-72
2022/05/27 04:34:49;;;;;;;6.15;3.50;;;12.70;99.90;;;;;;5028239;28;20057;-72
2022/05/27 04:37:15;;;;;;;5.47;3.20;;;12.70;99.90;;;;;;5029291;28;20033;-71
2022/05/27 04:39:42;;;;;;;9.27;3.30;;;12.80;99.90;;;;;;5027898;28;20387;-72
2022/05/27 04:42:09;;;;;;;4.78;3.20;;;12.90;99.90;;;;;;5028362;28;20133;-71
2022/05/27 04:44:34;;;;;;;7.72;3.47;;;12.90;99.90;;;;;;5026717;28;20045;-72
2022/05/27 04:47:01;;;;;;;5.53;3.20;;;12.90;99.90;;;;;;5028031;28;20413;-71
2022/05/27 04:52:11;;;;;;;7.38;3.13;;;13.00;99.90;;;;;;5029017;28;20474;-71
2022/05/27 04:54:37;;;;;;;6.05;2.83;;;12.90;99.90;;;;;;5028586;28;20061;-71
2022/05/27 04:57:03;;;;;;;6.57;3.20;;;12.90;99.90;;;;;;5026465;28;20421;-72
2022/05/27 04:59:29;;;;;;;8.85;2.92;;;12.90;99.90;;;;;;5024908;28;20125;-73
2022/05/27 05:01:54;;;;;;;7.25;2.92;;;12.90;99.90;;;;;;5022895;28;20044;-72
2022/05/27 05:04:20;;;;;;;6.03;2.90;;;13.10;99.90;;;;;;5027482;28;20032;-72
2022/05/27 05:06:46;;;;;;;5.80;3.05;;;13.10;99.90;;;;;;5026771;28;20060;-71
2022/05/27 05:09:12;;;;;;;6.65;3.00;;;13.10;99.90;;;;;;5029536;28;20084;-72
2022/05/27 05:11:38;;;;;;;6.50;3.33;;;13.20;99.90;;;;;;5026925;28;20033;-72
2022/05/27 05:14:04;;;;;;;5.60;3.38;;;13.20;99.90;;;;;;5027839;28;20446;-73
2022/05/27 05:16:29;;;;;;;6.38;3.70;;;13.30;99.90;;;;;;5027958;28;20029;-72
2022/05/27 05:18:55;;;;;;;6.40;3.63;;;13.30;99.90;;;;;;5026423;28;20029;-73
2022/05/27 05:21:21;;;;;;;6.35;3.70;;;13.30;99.90;;;;;;5029250;28;20041;-73
2022/05/27 05:23:47;;;;;;;6.30;3.50;;;13.40;99.90;;;;;;5026883;28;20455;-72
2022/05/27 05:26:12;;;;;;;9.75;3.40;;;13.40;99.90;;;;;;5028313;28;20445;-72
2022/05/27 05:28:38;;;;;;;5.53;3.08;;;13.40;99.90;;;;;;5028051;28;21557;-72
2022/05/27 05:31:06;;;;;;;11.05;3.55;;;13.40;99.90;;;;;;5021831;28;20069;-71
2022/05/27 05:33:33;;;;;;;7.18;3.28;;;13.40;99.90;;;;;;5024235;28;20029;-72
2022/05/27 05:35:59;;;;;;;7.63;3.00;;;13.50;99.90;;;;;;5024974;28;20032;-72
2022/05/27 05:38:26;;;;;;;8.25;3.30;;;13.60;99.90;;;;;;5026007;28;20073;-71
2022/05/27 05:40:52;;;;;;;4.28;2.78;;;13.60;99.90;;;;;;5025097;28;20069;-71
2022/05/27 05:43:18;;;;;;;5.18;2.90;;;13.60;99.90;;;;;;5021639;28;21705;-71
2022/05/27 05:45:43;;;;;;;5.78;2.75;;;13.60;99.90;;;;;;5023157;28;20061;-70
2022/05/27 05:48:09;;;;;;;8.40;3.28;;;13.70;99.90;;;;;;5018087;28;20122;-70
2022/05/27 05:50:35;;;;;;;4.57;2.90;;;13.80;99.90;;;;;;5025035;28;20045;-70
2022/05/27 05:53:01;;;;;;;7.47;2.80;;;13.80;99.90;;;;;;5026833;28;20166;-72
2022/05/27 05:55:26;;;;;;;4.70;2.63;;;13.80;99.90;;;;;;5013986;28;20036;-71
2022/05/27 05:57:53;;;;;;;9.15;2.95;;;13.80;99.90;;;;;;5012777;28;20029;-72
2022/05/27 06:00:22;;;;;;;7.15;2.95;;;13.80;99.90;;;;;;5032741;28;20049;-72
2022/05/27 06:02:47;;;;;;;4.63;2.67;;;13.80;99.90;;;;;;5030507;28;20057;-72
2022/05/27 06:05:13;;;;;;;4.40;2.70;;;13.80;99.90;;;;;;5030721;28;20533;-71
2022/05/27 06:07:40;;;;;;;5.03;3.05;;;13.80;99.90;;;;;;5028359;28;20041;-69
2022/05/27 06:10:07;;;;;;;5.93;2.90;;;13.80;99.90;;;;;;5029843;28;20072;-72
2022/05/27 06:12:34;;;;;;;9.25;3.00;;;13.90;99.90;;;;;;5032043;28;20041;-72
2022/05/27 06:15:01;;;;;;;5.90;3.10;;;13.90;99.90;;;;;;5030363;28;20033;-70
2022/05/27 06:17:27;;;;;;;6.13;2.60;;;13.90;99.90;;;;;;5032164;28;20375;-72
2022/05/27 06:19:53;;;;;;;9.85;3.10;;;14.00;99.90;;;;;;5030073;28;20022;-72
2022/05/27 06:22:19;;;;;;;5.88;2.92;;;14.00;99.90;;;;;;5028154;28;20553;-72
2022/05/27 06:24:44;;;;;;;7.15;3.08;;;14.10;99.90;;;;;;5030230;28;20044;-68
2022/05/27 06:27:10;;;;;;;5.85;3.25;;;14.10;99.90;;;;;;5031025;28;20053;-70
2022/05/27 06:35:06;;;;;;;5.40;2.78;;;14.10;99.90;;;;;;5030454;28;20052;-72
2022/05/27 06:37:31;;;;;;;5.65;3.10;;;14.20;99.90;;;;;;5013968;28;20033;-71
2022/05/27 06:39:58;;;;;;;5.25;3.10;;;14.20;99.90;;;;;;5030338;28;20049;-71
2022/05/27 06:42:23;;;;;;;4.57;2.85;;;14.30;99.90;;;;;;5032041;28;20034;-72
2022/05/27 06:44:49;;;;;;;6.60;3.40;;;14.30;99.90;;;;;;5031245;28;20036;-70
2022/05/27 06:47:15;;;;;;;6.55;3.33;;;14.40;99.90;;;;;;5031707;28;20037;-71
2022/05/27 06:49:44;;;;;;;8.68;3.47;;;14.40;99.90;;;;;;5031666;28;20029;-72
2022/05/27 06:52:11;;;;;;;4.82;2.78;;;14.50;99.90;;;;;;5030876;28;20037;-72
2022/05/27 06:54:37;;;;;;;7.85;2.92;;;14.50;99.90;;;;;;5030776;28;20029;-71
2022/05/27 06:57:06;;;;;;;9.50;3.00;;;14.50;99.90;;;;;;5030968;28;20045;-71
2022/05/27 06:59:32;;;;;;;6.15;3.20;;;14.60;99.90;;;;;;5031347;28;20037;-71
2022/05/27 07:01:58;;;;;;;8.40;3.25;;;14.60;99.90;;;;;;5030341;28;20036;-71
2022/05/27 07:04:24;;;;;;;6.05;3.13;;;14.60;99.90;;;;;;5025749;28;20038;-69
2022/05/27 07:06:50;;;;;;;6.15;2.90;;;14.70;99.90;;;;;;5027836;28;20052;-69
2022/05/27 07:09:18;;;;;;;9.25;3.08;;;14.60;99.90;;;;;;5028635;28;20368;-70
2022/05/27 07:11:45;;;;;;;8.02;3.20;;;14.70;99.90;;;;;;5026497;28;20049;-71
2022/05/27 07:14:13;;;;;;;7.35;3.40;;;14.60;99.90;;;;;;5023959;28;20278;-69
2022/05/27 07:16:40;;;;;;;6.22;3.05;;;14.70;99.90;;;;;;5029171;28;20037;-70
2022/05/27 07:19:05;;;;;;;5.80;3.15;;;14.70;99.90;;;;;;5029689;28;20036;-70
2022/05/27 07:21:35;;;;;;;11.63;3.45;;;14.80;99.90;;;;;;5031380;28;20363;-71
2022/05/27 07:24:01;;;;;;;6.75;3.17;;;14.80;99.90;;;;;;5028643;28;20061;-71
2022/05/27 07:26:27;;;;;;;5.57;3.15;;;14.90;99.90;;;;;;5029213;28;20482;-71
2022/05/27 07:28:53;;;;;;;7.43;3.30;;;14.80;99.90;;;;;;5027602;28;20481;-73
2022/05/27 07:31:19;;;;;;;8.95;3.45;;;14.80;99.90;;;;;;5030320;28;20028;-71
2022/05/27 07:33:45;;;;;;;6.93;3.03;;;14.70;99.90;;;;;;5028305;28;20041;-71
2022/05/27 07:36:12;;;;;;;6.68;3.30;;;14.70;99.90;;;;;;5023473;28;20025;-71
2022/05/27 07:38:38;;;;;;;8.63;3.53;;;14.60;99.90;;;;;;5030958;28;20041;-71
2022/05/27 07:41:05;;;;;;;10.27;4.43;;;14.60;99.90;;;;;;5030111;28;20111;-71
2022/05/27 07:43:31;;;;;;;8.55;3.90;;;14.60;99.90;;;;;;5030999;28;20033;-71
2022/05/27 07:45:58;;;;;;;13.05;3.83;;;14.50;99.90;;;;;;5029129;28;20031;-71
2022/05/27 07:48:24;;;;;;;8.50;4.10;;;14.50;99.90;;;;;;5030190;28;20072;-71
2022/05/27 07:50:50;;;;;;;9.93;4.30;;;14.40;99.90;;;;;;5029889;28;20461;-71
2022/05/27 07:53:16;;;;;;;9.05;4.55;;;14.40;99.90;;;;;;5030629;28;20022;-71
2022/05/27 07:55:42;;;;;;;9.15;4.10;;;14.30;99.90;;;;;;5030545;28;20061;-71
2022/05/27 07:58:08;;;;;;;8.70;4.45;;;14.30;99.90;;;;;;5028392;28;20075;-72
2022/05/27 08:00:35;;;;;;;9.55;4.40;;;14.30;99.90;;;;;;5029830;28;20034;-71
2022/05/27 08:03:01;;;;;;;10.27;4.75;;;14.30;99.90;;;;;;5029695;28;20025;-72
2022/05/27 08:05:29;;;;;;;11.27;4.60;;;14.20;99.90;;;;;;5030164;28;20445;-70
2022/05/27 08:07:57;;;;;;;11.77;4.55;;;14.30;99.90;;;;;;5029788;28;20041;-72
2022/05/27 08:10:26;;;;;;;9.05;4.45;;;14.30;99.90;;;;;;5030459;28;20036;-71
2022/05/27 08:12:51;;;;;;;13.95;4.63;;;14.20;99.90;;;;;;5029552;28;20112;-69
2022/05/27 08:15:17;;;;;;;8.75;4.28;;;14.20;99.90;;;;;;5029260;28;20534;-70
2022/05/27 08:17:43;;;;;;;9.52;4.43;;;14.20;99.90;;;;;;5029313;28;20041;-70
2022/05/27 08:20:12;;;;;;;13.60;5.05;;;14.20;99.90;;;;;;5029088;28;20600;-71
2022/05/27 08:22:38;;;;;;;11.23;4.90;;;14.20;99.90;;;;;;5030029;28;20040;-71
2022/05/27 08:25:05;;;;;;;14.45;4.75;;;14.20;99.90;;;;;;5029089;28;20034;-71
2022/05/27 08:27:30;;;;;;;12.00;4.43;;;14.30;99.90;;;;;;5029407;28;20040;-70
2022/05/27 08:29:56;;;;;;;13.38;4.88;;;14.40;99.90;;;;;;5011456;28;20029;-71
2022/05/27 08:32:22;;;;;;;12.77;4.53;;;14.40;99.90;;;;;;5029819;28;20061;-71
2022/05/27 08:40:24;;;;;;;7.93;4.43;;;14.60;99.90;;;;;;5026093;28;20092;-71
2022/05/27 08:42:58;;;;;;;9.27;4.07;;;14.50;99.90;;;;;;5030235;28;20386;-70
2022/05/27 08:45:46;;;;;;;11.73;4.15;;;14.50;99.90;;;;;;5025653;28;20040;-71
2022/05/27 08:48:13;;;;;;;9.60;4.82;;;14.50;99.90;;;;;;5024239;28;20616;-70
2022/05/27 08:50:51;;;;;;;8.75;4.03;;;14.50;99.90;;;;;;5027904;28;20103;-71
2022/05/27 08:53:39;;;;;;;9.73;4.47;;;14.50;99.90;;;;;;5021108;28;20033;-71
2022/05/27 08:59:28;;;;;;;9.40;4.18;;;14.50;99.90;;;;;;5029076;28;20580;-70
2022/05/27 09:02:16;;;;;;;9.52;4.50;;;14.40;99.90;;;;;;5028236;28;20133;-69
2022/05/27 09:05:15;;;;;;;9.90;4.05;;;14.40;99.90;;;;;;5028558;28;20109;-71
2022/05/27 09:07:59;;;;;;;6.75;3.63;;;14.40;99.90;;;;;;5014529;28;20053;-71
2022/05/27 09:10:56;;;;;;;8.90;4.13;;;14.40;99.90;;;;;;5028516;28;20148;-71
2022/05/27 09:13:47;;;;;;;7.72;3.65;;;14.50;99.90;;;;;;5027693;28;20037;-70
2022/05/27 09:16:18;;;;;;;;;;;14.50;99.90;;;;;;5027334;28;20163;-72
2022/05/27 09:18:47;;;;;;;10.30;3.80;;;14.60;99.90;;;;;;5025257;28;19920;-72
2022/05/27 09:21:31;;;;;;;10.98;4.07;;;14.70;99.90;;;;;;5017779;28;20620;-71
2022/05/27 09:24:54;;;;;;;6.65;4.38;;;14.80;99.90;;;;;;5021205;28;20044;-69
2022/05/27 09:27:40;;;;;;;7.00;4.10;;;15.00;99.90;;;;;;4963944;28;20066;-71
2022/05/27 09:30:11;;;;;;;8.30;4.30;;;15.20;99.90;;;;;;4959323;28;20113;-71
2022/05/27 09:32:55;;;;;;;9.02;3.70;;;15.30;99.90;;;;;;4974955;28;20083;-72
2022/05/27 09:35:48;;;;;;;7.80;3.45;;;15.40;99.90;;;;;;4969953;28;20039;-71
2022/05/27 09:38:30;;;;;;;7.78;3.60;;;15.40;99.90;;;;;;4971059;28;20617;-73
2022/05/27 09:41:03;;;;;;;10.25;3.75;;;15.40;99.90;;;;;;4971587;28;20575;-69
2022/05/27 09:43:49;;;;;;;9.07;3.97;;;15.40;99.90;;;;;;4969602;28;20038;-71
2022/05/27 09:46:27;;;;;;;6.18;3.75;;;15.40;99.90;;;;;;4970981;28;20920;-73
2022/05/27 09:48:56;;;;;;;9.93;4.40;;;15.60;99.90;;;;;;4971356;28;20043;-72
2022/05/27 09:51:24;;;;;;;8.70;3.75;;;15.60;99.90;;;;;;4969115;28;20043;-72
2022/05/27 09:53:54;;;;;;;7.32;4.03;;;15.60;99.90;;;;;;4971281;28;20039;-72
2022/05/27 09:56:56;;;;;;;9.05;4.32;;;15.70;99.90;;;;;;4970732;28;20045;-71
2022/05/27 09:59:35;;;;;;;7.65;3.53;;;15.90;99.90;;;;;;5010781;28;20095;-71
2022/05/27 10:02:35;;;;;;;6.60;3.60;;;16.10;99.90;;;;;;5028517;28;20061;-72
2022/05/27 10:05:26;;;;;;;6.87;3.93;;;16.40;99.90;;;;;;5026741;28;20083;-71
2022/05/27 10:07:54;;;;;;;8.60;3.80;;;16.60;99.90;;;;;;5024897;28;20329;-71
2022/05/27 10:10:28;;;;;;;12.75;4.10;;;16.70;99.90;;;;;;5030157;28;20091;-72
2022/05/27 10:13:12;;;;;;;6.78;3.50;;;16.80;99.90;;;;;;5029132;28;20064;-72
2022/05/27 10:15:38;;;;;;;12.43;3.92;;;17.30;99.90;;;;;;5030362;28;20495;-72
2022/05/27 10:18:19;;;;;;;8.15;3.45;;;17.70;99.90;;;;;;5030715;28;20116;-72
2022/05/27 10:20:58;;;;;;;10.57;3.92;;;17.50;99.90;;;;;;5030938;28;20071;-71
2022/05/27 10:23:28;;;;;;;7.53;3.35;;;17.40;99.90;;;;;;5030366;28;20060;-71
2022/05/27 10:25:54;;;;;;;7.23;3.47;;;17.30;99.90;;;;;;5043137;28;20037;-71
2022/05/27 10:28:29;;;;;;;12.77;3.67;;;17.00;99.90;;;;;;5050445;28;20295;-73
2022/05/27 10:31:02;;;;;;;8.23;3.60;;;17.00;99.90;;;;;;5024058;28;20112;-72
2022/05/27 10:33:40;;;;;;;8.20;3.38;;;17.30;99.90;;;;;;5031989;28;20049;-72
2022/05/27 10:36:37;;;;;;;11.10;3.80;;;17.80;99.90;;;;;;5028968;28;20061;-73
2022/05/27 10:39:13;;;;;;;5.95;3.28;;;17.80;99.90;;;;;;4942246;28;20056;-70
2022/05/27 10:42:17;;;;;;;5.85;3.50;;;18.10;99.90;;;;;;5031359;28;20133;-71
2022/05/27 10:45:02;;;;;;;5.78;3.30;;;18.50;99.90;;;;;;5031196;28;20087;-73
2022/05/27 10:47:43;;;;;;;6.45;3.13;;;18.50;99.90;;;;;;5027811;28;20448;-71
2022/05/27 10:50:33;;;;;;;9.20;4.30;;;18.30;99.90;;;;;;5025331;28;20513;-72
2022/05/27 10:53:33;;;;;;;4.80;2.63;;;18.40;99.90;;;;;;5022601;28;20470;-72
2022/05/27 10:56:35;;;;;;;8.80;3.00;;;18.60;99.90;;;;;;5028328;28;20381;-70
2022/05/27 11:03:03;;;;;;;5.43;2.83;;;18.90;99.90;;;;;;5016427;28;20552;-72
2022/05/27 11:05:35;;;;;;;6.75;2.67;;;18.80;99.90;;;;;;4941641;29;20043;-72
2022/05/27 11:08:23;;;;;;;8.48;3.13;;;18.50;99.90;;;;;;5015977;28;20053;-71
2022/05/27 11:11:36;;;;;;;6.43;2.85;;;18.10;99.90;;;;;;5021385;28;20479;-73
2022/05/27 11:17:20;;;;;;;6.55;2.70;;;17.70;99.90;;;;;;5029004;28;20040;-70
2022/05/27 11:19:59;;;;;;;5.70;2.90;;;17.60;99.90;;;;;;5031494;28;20025;-72
2022/05/27 11:22:31;;;;;;;11.43;3.55;;;17.70;99.90;;;;;;5029185;28;20033;-72
2022/05/27 11:25:22;;;;;;;5.10;2.97;;;17.70;99.90;;;;;;5031040;28;20030;-71
2022/05/27 11:28:19;;;;;;;7.93;3.17;;;17.70;99.90;;;;;;5025444;28;20129;-72
2022/05/27 11:31:17;;;;;;;7.07;3.15;;;17.80;99.90;;;;;;5028714;28;20034;-71
2022/05/27 11:34:14;;;;;;;4.78;3.03;;;18.00;99.90;;;;;;5014851;28;20046;-72
2022/05/27 11:37:07;;;;;;;5.22;2.75;;;18.20;99.90;;;;;;5029213;28;20033;-71
2022/05/27 11:39:52;;;;;;;5.07;2.85;;;18.40;99.90;;;;;;5025142;28;20061;-71
2022/05/27 11:42:47;;;;;;;5.97;2.70;;;18.60;99.90;;;;;;5026365;28;20025;-73
2022/05/27 11:45:23;;;;;;;7.43;2.70;;;18.70;99.90;;;;;;4992569;28;20042;-72
2022/05/27 11:48:04;;;;;;;4.97;2.85;;;18.60;99.90;;;;;;5020796;28;20170;-70
2022/05/27 11:50:29;;;;;;;7.95;2.67;;;18.40;99.90;;;;;;5029817;28;20038;-73
2022/05/27 11:52:55;;;;;;;5.10;2.60;;;18.40;99.90;;;;;;5029460;28;20036;-71
2022/05/27 11:55:27;;;;;;;6.55;2.60;;;18.80;99.90;;;;;;5027859;28;20670;-70
2022/05/27 11:58:04;;;;;;;5.97;2.85;;;19.40;99.90;;;;;;5030134;28;20116;-70
2022/05/27 12:00:35;;;;;;;6.25;2.60;;;19.90;99.90;;;;;;5028182;28;20029;-71
2022/05/27 12:03:07;;;;;;;6.07;2.95;;;19.80;99.90;;;;;;5027775;28;20053;-69
2022/05/27 12:05:40;;;;;;;5.53;2.60;;;19.80;99.90;;;;;;5010835;28;20391;-71
2022/05/27 12:08:05;;;;;;;9.27;3.17;;;19.80;99.90;;;;;;5028916;28;20440;-69
2022/05/27 12:10:47;;;;;;;6.63;2.70;;;19.80;99.90;;;;;;5029419;28;20022;-70
2022/05/27 12:13:30;;;;;;;4.40;2.58;;;19.60;99.90;;;;;;5028917;28;20037;-72
2022/05/27 12:16:05;;;;;;;12.60;2.70;;;19.60;99.90;;;;;;5030457;28;20101;-70
2022/05/27 12:19:08;;;;;;;5.25;2.60;;;19.60;99.90;;;;;;5027729;28;20170;-71
2022/05/27 12:21:43;;;;;;;5.90;2.70;;;19.70;99.90;;;;;;4929090;29;20039;-70
2022/05/27 12:24:18;;;;;;;6.22;2.95;;;19.70;99.90;;;;;;4999215;28;20589;-71
2022/05/27 12:26:46;;;;;;;5.10;2.65;;;19.60;99.90;;;;;;5018597;28;20109;-72
2022/05/27 12:29:13;;;;;;;6.47;2.63;;;19.10;99.90;;;;;;5029217;28;20124;-70
2022/05/27 12:31:40;;;;;;;4.22;2.80;;;19.10;99.90;;;;;;5028723;28;20033;-72
2022/05/27 12:34:28;;;;;;;7.53;2.50;;;19.60;99.90;;;;;;5028739;28;20095;-70
2022/05/27 12:36:59;;;;;;;3.50;2.40;;;19.80;99.90;;;;;;5029168;28;20533;-70
2022/05/27 12:39:27;;;;;;;4.53;2.47;;;19.80;99.90;;;;;;5029420;28;20115;-71
2022/05/27 12:42:08;;;;;;;4.53;2.20;;;19.80;99.90;;;;;;5029019;28;20053;-71
2022/05/27 12:44:35;;;;;;;5.90;2.63;;;19.90;99.90;;;;;;5028611;28;20481;-69
2022/05/27 12:47:04;;;;;;;5.75;2.53;;;20.00;99.90;;;;;;5028323;28;20032;-73
2022/05/27 12:49:39;;;;;;;6.35;2.63;;;20.00;99.90;;;;;;5029015;28;20045;-71
2022/05/27 12:52:26;;;;;;;3.15;2.38;;;19.80;99.90;;;;;;5028540;28;20108;-71
2022/05/27 12:54:53;;;;;;;5.25;2.10;;;19.80;99.90;;;;;;5007001;28;20041;-71
2022/05/27 13:01:04;;;;;;;7.70;2.17;;;19.90;99.90;;;;;;5028551;28;20108;-71
2022/05/27 13:03:36;;;;;;;4.80;1.88;;;19.80;99.90;;;;;;5022205;28;20096;-71
2022/05/27 13:06:17;;;;;;;4.25;2.35;;;19.60;99.90;;;;;;5029553;28;20029;-70
2022/05/27 13:08:52;;;;;;;4.45;2.15;;;19.30;99.90;;;;;;5029377;28;20034;-71
2022/05/27 13:11:25;;;;;;;3.22;2.13;;;19.10;99.90;;;;;;5025643;28;20033;-71
2022/05/27 13:14:18;;;;;;;12.88;2.35;;;19.00;99.90;;;;;;5009820;28;20022;-71
2022/05/27 13:16:44;;;;;;;4.15;2.25;;;18.80;99.90;;;;;;5018083;28;20068;-71
2022/05/27 13:19:22;;;;;;;5.88;2.40;;;18.40;99.90;;;;;;5025382;28;20095;-69
2022/05/27 13:21:54;;;;;;;4.18;2.03;;;18.20;99.90;;;;;;5024133;28;20041;-70
2022/05/27 13:24:20;;;;;;;5.18;2.10;;;18.20;99.90;;;;;;5025315;28;20042;-72
2022/05/27 13:27:04;;;;;;;4.28;2.20;;;18.10;99.90;;;;;;5023828;28;20033;-72
2022/05/27 13:29:41;;;;;;;11.05;2.50;;;18.00;99.90;;;;;;5027599;28;20223;-70
2022/05/27 13:32:10;;;;;;;4.28;2.15;;;17.90;99.90;;;;;;5024232;28;20053;-70
2022/05/27 13:34:48;;;;;;;5.90;2.53;;;17.80;99.90;;;;;;5028338;28;20053;-71
2022/05/27 13:37:28;;;;;;;2.60;1.80;;;17.70;99.90;;;;;;5026704;28;20033;-72
2022/05/27 13:39:58;;;;;;;5.20;2.33;;;17.60;99.90;;;;;;5024426;28;20091;-70
2022/05/27 13:42:33;;;;;;;3.22;2.28;;;17.70;99.90;;;;;;5024895;28;20049;-71
2022/05/27 13:45:08;;;;;;;4.18;2.40;;;17.70;99.90;;;;;;5023622;28;20079;-70
2022/05/27 13:47:35;;;;;;;3.40;2.00;;;17.60;99.90;;;;;;5023881;28;20065;-70
2022/05/27 13:50:01;;;;;;;5.82;2.63;;;17.60;99.90;;;;;;5024559;28;20036;-71
2022/05/27 13:52:34;;;;;;;4.88;2.78;;;17.50;99.90;;;;;;5027754;28;20029;-69